Amherst, WI

2:42 AM CDT on October 24, 2014 (GMT -0500)
KWIWAUPA3 | Change Station
CLOSE
Current Station
Personal Weather Station
Location: Waupaca, WI
Elevation: 900 ft
Nearby Weather Stations
Active Advisory: Dense Fog Advisory

Elev 900 ft 44.38 °N, 89.23 °W | Updated 4 minutes ago

Fog
Fog
45.7 °F
Feels Like 46 °F
N
0.0
Wind Variable Wind from SSE
Gusts 0.0 mph

Today
High -- | Low -- °F
--% Chance of Precip.
Yesterday
High -- | Low -- °F
Precip. -- in
7:23 AM 5:58 PM
New Moon, 0% visible
Pressure 30.03 in
Visibility 1.8 miles
Clouds Overcast 200 ft
Windchill 46 °F
Dew Point 45 °F
Humidity 96%
Rainfall 0.00 in
Snow Depth Not available.
UV 0 out of 12
Pollen .10 out of 12
Air Quality Not available.
Flu Activity Sporadic
METAR KSTE 240735Z AUTO 00000KT 1 3/4SM BR OVC002 07/07 A3003 RMK AO2 T00700070

More Conditions Fewer Conditions

Pressure 30.03 in
Visibility 1.8 miles
Clouds Overcast 200 ft
Windchill 46 °F
Dew Point 45 °F
Humidity 96%
Rainfall 0.00 in
Snow Depth Not available.
UV 0 out of 12
Pollen .10 out of 12
Air Quality Not available.
Flu Activity Sporadic
METAR KSTE 240735Z AUTO 00000KT 1 3/4SM BR OVC002 07/07 A3003 RMK AO2 T00700070

More Conditions Fewer Conditions

10-Day Weather Forecast

Almanac

Astronomy

Oct. 24, 2014 Rise Set
Actual Time 7:23 AM CDT 5:58 PM CDT
Civil Twilight 6:54 AM CDT 6:27 PM CDT
Nautical Twilight 6:20 AM CDT 7:01 PM CDT
Astronomical Twilight 5:46 AM CDT 7:35 PM CDT
Moon 8:04 AM CDT 6:36 PM CDT
Length of Visible Light 11h 33m
Length of Day
10h 34m
Tomorrow will be 2m 52s shorter.
New Moon, 0% of the Moon is Illuminated
Today
New Moon
Oct 30
First Quarter
Nov 6
Full
Nov 14
Last Quarter
Nov 22
New

Today's Extremes

State Highs State Lows

Community

WunderPhotos

Upload Photos

1,764,512 photos uploaded!

WunderBlogs® & News

Nearby

Snow Depth

Station Depth Elevation
No new snow has been reported.

Earthquake Activity

City Distance Mag. Time & Date
No recent earthquake activity has been reported nearby.
Minimum magnitude displayed is 2.5.

Coastal Water Temperatures

Place Temperature
No Stations Reporting

Nearby Weather Stations